sensor_id;sensor_type;location;lat;lon;timestamp;temperature;humidity
4637;DHT22;2331;48.806;9.140;2022-12-11T00:01:07;1.30;1.00
4637;DHT22;2331;48.806;9.140;2022-12-11T00:03:34;1.20;1.00
4637;DHT22;2331;48.806;9.140;2022-12-11T00:06:04;1.20;1.00
4637;DHT22;2331;48.806;9.140;2022-12-11T00:08:31;1.20;1.00
4637;DHT22;2331;48.806;9.140;2022-12-11T00:10:57;1.20;1.00
4637;DHT22;2331;48.806;9.140;2022-12-11T00:13:24;1.20;1.00
4637;DHT22;2331;48.806;9.140;2022-12-11T00:15:51;1.30;1.00
4637;DHT22;2331;48.806;9.140;2022-12-11T00:18:19;1.30;1.00
4637;DHT22;2331;48.806;9.140;2022-12-11T00:20:46;1.20;1.00
4637;DHT22;2331;48.806;9.140;2022-12-11T00:23:13;1.30;1.00
4637;DHT22;2331;48.806;9.140;2022-12-11T00:25:40;1.20;1.00
4637;DHT22;2331;48.806;9.140;2022-12-11T00:28:08;1.20;1.00
4637;DHT22;2331;48.806;9.140;2022-12-11T00:30:37;1.20;1.00
4637;DHT22;2331;48.806;9.140;2022-12-11T00:33:04;1.20;1.00
4637;DHT22;2331;48.806;9.140;2022-12-11T00:35:32;1.20;1.00
4637;DHT22;2331;48.806;9.140;2022-12-11T00:37:59;1.30;1.00
4637;DHT22;2331;48.806;9.140;2022-12-11T00:40:26;1.20;1.00
4637;DHT22;2331;48.806;9.140;2022-12-11T00:42:52;1.30;1.00
4637;DHT22;2331;48.806;9.140;2022-12-11T00:45:19;1.30;1.00
4637;DHT22;2331;48.806;9.140;2022-12-11T00:47:46;1.30;1.00
4637;DHT22;2331;48.806;9.140;2022-12-11T00:50:12;1.40;1.00
4637;DHT22;2331;48.806;9.140;2022-12-11T00:52:41;1.30;1.00
4637;DHT22;2331;48.806;9.140;2022-12-11T00:55:07;1.40;1.00
4637;DHT22;2331;48.806;9.140;2022-12-11T00:57:35;1.30;1.00
4637;DHT22;2331;48.806;9.140;2022-12-11T01:00:03;1.40;1.00
4637;DHT22;2331;48.806;9.140;2022-12-11T01:02:31;1.40;1.00
4637;DHT22;2331;48.806;9.140;2022-12-11T01:04:58;1.40;1.00
4637;DHT22;2331;48.806;9.140;2022-12-11T01:07:25;1.40;1.00
4637;DHT22;2331;48.806;9.140;2022-12-11T01:09:53;1.50;1.00
4637;DHT22;2331;48.806;9.140;2022-12-11T01:12:34;1.50;1.00
4637;DHT22;2331;48.806;9.140;2022-12-11T01:15:01;1.60;1.00
4637;DHT22;2331;48.806;9.140;2022-12-11T01:17:28;1.60;1.00
4637;DHT22;2331;48.806;9.140;2022-12-11T01:19:54;1.60;1.00
4637;DHT22;2331;48.806;9.140;2022-12-11T01:22:21;1.60;1.00
4637;DHT22;2331;48.806;9.140;2022-12-11T01:24:48;1.60;1.00
4637;DHT22;2331;48.806;9.140;2022-12-11T01:27:16;1.60;1.00
4637;DHT22;2331;48.806;9.140;2022-12-11T01:29:43;1.60;1.00
4637;DHT22;2331;48.806;9.140;2022-12-11T01:32:10;1.70;1.00
4637;DHT22;2331;48.806;9.140;2022-12-11T01:34:37;1.70;1.00
4637;DHT22;2331;48.806;9.140;2022-12-11T01:37:04;1.70;1.00
4637;DHT22;2331;48.806;9.140;2022-12-11T01:39:30;1.70;1.00
4637;DHT22;2331;48.806;9.140;2022-12-11T01:41:58;1.70;1.00
4637;DHT22;2331;48.806;9.140;2022-12-11T01:47:58;1.70;1.00
4637;DHT22;2331;48.806;9.140;2022-12-11T01:50:26;1.80;1.00
4637;DHT22;2331;48.806;9.140;2022-12-11T01:52:53;1.80;1.00
4637;DHT22;2331;48.806;9.140;2022-12-11T01:55:20;1.80;1.00
4637;DHT22;2331;48.806;9.140;2022-12-11T01:57:49;1.80;1.00
4637;DHT22;2331;48.806;9.140;2022-12-11T02:00:16;1.80;1.00
4637;DHT22;2331;48.806;9.140;2022-12-11T02:02:43;1.90;1.00
4637;DHT22;2331;48.806;9.140;2022-12-11T02:05:12;1.90;1.00
4637;DHT22;2331;48.806;9.140;2022-12-11T02:07:43;1.90;1.00
4637;DHT22;2331;48.806;9.140;2022-12-11T02:10:11;1.90;1.00
4637;DHT22;2331;48.806;9.140;2022-12-11T02:12:46;1.90;1.00
4637;DHT22;2331;48.806;9.140;2022-12-11T02:15:21;1.90;1.00
4637;DHT22;2331;48.806;9.140;2022-12-11T02:17:53;1.90;1.00
4637;DHT22;2331;48.806;9.140;2022-12-11T02:20:29;1.90;1.00
4637;DHT22;2331;48.806;9.140;2022-12-11T02:23:20;1.90;1.00
4637;DHT22;2331;48.806;9.140;2022-12-11T02:25:55;2.00;1.00
4637;DHT22;2331;48.806;9.140;2022-12-11T02:28:28;2.00;1.00
4637;DHT22;2331;48.806;9.140;2022-12-11T02:30:59;1.90;1.00
4637;DHT22;2331;48.806;9.140;2022-12-11T02:33:33;1.90;1.00
4637;DHT22;2331;48.806;9.140;2022-12-11T02:36:04;1.90;1.00
4637;DHT22;2331;48.806;9.140;2022-12-11T02:38:35;1.90;1.00
4637;DHT22;2331;48.806;9.140;2022-12-11T02:41:04;1.90;1.00
4637;DHT22;2331;48.806;9.140;2022-12-11T02:43:36;1.90;1.00
4637;DHT22;2331;48.806;9.140;2022-12-11T02:46:05;1.90;1.00
4637;DHT22;2331;48.806;9.140;2022-12-11T02:48:34;1.90;1.00
4637;DHT22;2331;48.806;9.140;2022-12-11T02:51:03;2.00;1.00
4637;DHT22;2331;48.806;9.140;2022-12-11T02:53:34;2.00;1.00
4637;DHT22;2331;48.806;9.140;2022-12-11T02:56:05;2.00;1.00
4637;DHT22;2331;48.806;9.140;2022-12-11T02:58:36;1.90;1.00
4637;DHT22;2331;48.806;9.140;2022-12-11T03:01:07;1.90;1.00
4637;DHT22;2331;48.806;9.140;2022-12-11T03:03:34;1.90;1.00
4637;DHT22;2331;48.806;9.140;2022-12-11T03:06:00;2.00;1.00
4637;DHT22;2331;48.806;9.140;2022-12-11T03:08:28;2.00;1.00
4637;DHT22;2331;48.806;9.140;2022-12-11T03:10:55;2.00;1.00
4637;DHT22;2331;48.806;9.140;2022-12-11T03:13:22;2.00;1.00
4637;DHT22;2331;48.806;9.140;2022-12-11T03:15:58;2.10;1.00
4637;DHT22;2331;48.806;9.140;2022-12-11T03:18:34;2.10;1.00
4637;DHT22;2331;48.806;9.140;2022-12-11T03:21:06;2.00;1.00
4637;DHT22;2331;48.806;9.140;2022-12-11T03:23:40;2.10;1.00
4637;DHT22;2331;48.806;9.140;2022-12-11T03:26:11;2.00;1.00
4637;DHT22;2331;48.806;9.140;2022-12-11T03:28:43;2.10;1.00
4637;DHT22;2331;48.806;9.140;2022-12-11T03:31:16;2.10;1.00
4637;DHT22;2331;48.806;9.140;2022-12-11T03:33:47;2.10;1.00
4637;DHT22;2331;48.806;9.140;2022-12-11T03:36:18;2.00;1.00
4637;DHT22;2331;48.806;9.140;2022-12-11T03:38:48;2.00;1.00
4637;DHT22;2331;48.806;9.140;2022-12-11T03:41:17;2.10;1.00
4637;DHT22;2331;48.806;9.140;2022-12-11T03:43:44;2.10;1.00
4637;DHT22;2331;48.806;9.140;2022-12-11T03:46:14;2.10;1.00
4637;DHT22;2331;48.806;9.140;2022-12-11T03:48:45;2.20;1.00
4637;DHT22;2331;48.806;9.140;2022-12-11T03:51:14;2.20;1.00
4637;DHT22;2331;48.806;9.140;2022-12-11T03:53:42;2.10;1.00
4637;DHT22;2331;48.806;9.140;2022-12-11T03:56:10;2.10;1.00
4637;DHT22;2331;48.806;9.140;2022-12-11T03:58:38;2.10;1.00
4637;DHT22;2331;48.806;9.140;2022-12-11T04:01:08;2.10;1.00
4637;DHT22;2331;48.806;9.140;2022-12-11T04:03:36;2.10;1.00
4637;DHT22;2331;48.806;9.140;2022-12-11T04:06:03;2.10;1.00
4637;DHT22;2331;48.806;9.140;2022-12-11T04:09:09;2.10;1.00
4637;DHT22;2331;48.806;9.140;2022-12-11T04:11:36;2.00;1.00
4637;DHT22;2331;48.806;9.140;2022-12-11T04:14:05;2.00;1.00
4637;DHT22;2331;48.806;9.140;2022-12-11T04:16:51;2.10;1.00
4637;DHT22;2331;48.806;9.140;2022-12-11T04:19:21;2.10;1.00
4637;DHT22;2331;48.806;9.140;2022-12-11T04:22:05;1.90;1.00
4637;DHT22;2331;48.806;9.140;2022-12-11T04:24:50;1.90;1.00
4637;DHT22;2331;48.806;9.140;2022-12-11T04:27:18;1.80;1.00
4637;DHT22;2331;48.806;9.140;2022-12-11T04:29:59;1.70;1.00
4637;DHT22;2331;48.806;9.140;2022-12-11T04:32:26;1.60;1.00
4637;DHT22;2331;48.806;9.140;2022-12-11T04:34:54;1.60;1.00
4637;DHT22;2331;48.806;9.140;2022-12-11T04:37:21;1.50;1.00
4637;DHT22;2331;48.806;9.140;2022-12-11T04:39:48;1.50;1.00
4637;DHT22;2331;48.806;9.140;2022-12-11T04:42:15;1.40;1.00
4637;DHT22;2331;48.806;9.140;2022-12-11T04:44:42;1.40;1.00
4637;DHT22;2331;48.806;9.140;2022-12-11T04:47:09;1.40;1.00
4637;DHT22;2331;48.806;9.140;2022-12-11T04:49:35;1.40;1.00
4637;DHT22;2331;48.806;9.140;2022-12-11T04:52:04;1.30;1.00
4637;DHT22;2331;48.806;9.140;2022-12-11T04:54:31;1.30;1.00
4637;DHT22;2331;48.806;9.140;2022-12-11T04:56:58;1.20;1.00
4637;DHT22;2331;48.806;9.140;2022-12-11T04:59:25;1.20;1.00
4637;DHT22;2331;48.806;9.140;2022-12-11T05:01:51;1.20;1.00
4637;DHT22;2331;48.806;9.140;2022-12-11T05:04:18;1.30;1.00
4637;DHT22;2331;48.806;9.140;2022-12-11T05:06:45;1.40;1.00
4637;DHT22;2331;48.806;9.140;2022-12-11T05:09:15;1.40;1.00
4637;DHT22;2331;48.806;9.140;2022-12-11T05:11:42;1.40;1.00
4637;DHT22;2331;48.806;9.140;2022-12-11T05:14:09;1.50;1.00
4637;DHT22;2331;48.806;9.140;2022-12-11T05:16:36;1.60;1.00
4637;DHT22;2331;48.806;9.140;2022-12-11T05:19:03;1.60;1.00
4637;DHT22;2331;48.806;9.140;2022-12-11T05:21:29;1.70;1.00
4637;DHT22;2331;48.806;9.140;2022-12-11T05:23:56;1.70;1.00
4637;DHT22;2331;48.806;9.140;2022-12-11T05:26:24;1.70;1.00
4637;DHT22;2331;48.806;9.140;2022-12-11T05:28:52;1.70;1.00
4637;DHT22;2331;48.806;9.140;2022-12-11T05:31:21;1.70;1.00
4637;DHT22;2331;48.806;9.140;2022-12-11T05:33:49;1.70;1.00
4637;DHT22;2331;48.806;9.140;2022-12-11T05:36:18;1.60;1.00
4637;DHT22;2331;48.806;9.140;2022-12-11T05:38:45;1.60;1.00
4637;DHT22;2331;48.806;9.140;2022-12-11T05:41:15;1.60;1.00
4637;DHT22;2331;48.806;9.140;2022-12-11T05:43:44;1.60;1.00
4637;DHT22;2331;48.806;9.140;2022-12-11T05:46:13;1.60;1.00
4637;DHT22;2331;48.806;9.140;2022-12-11T05:48:41;1.60;1.00
4637;DHT22;2331;48.806;9.140;2022-12-11T05:51:08;1.50;1.00
4637;DHT22;2331;48.806;9.140;2022-12-11T05:53:36;1.50;1.00
4637;DHT22;2331;48.806;9.140;2022-12-11T05:56:06;1.50;1.00
4637;DHT22;2331;48.806;9.140;2022-12-11T05:58:34;1.50;1.00
4637;DHT22;2331;48.806;9.140;2022-12-11T06:01:06;1.60;1.00
4637;DHT22;2331;48.806;9.140;2022-12-11T06:03:33;1.50;1.00
4637;DHT22;2331;48.806;9.140;2022-12-11T06:06:00;1.50;1.00
4637;DHT22;2331;48.806;9.140;2022-12-11T06:08:27;1.40;1.00
4637;DHT22;2331;48.806;9.140;2022-12-11T06:10:54;1.50;1.00
4637;DHT22;2331;48.806;9.140;2022-12-11T06:13:21;1.40;1.00
4637;DHT22;2331;48.806;9.140;2022-12-11T06:15:47;1.40;1.00
4637;DHT22;2331;48.806;9.140;2022-12-11T06:18:16;1.40;1.00
4637;DHT22;2331;48.806;9.140;2022-12-11T06:20:42;1.40;1.00
4637;DHT22;2331;48.806;9.140;2022-12-11T06:23:09;1.40;1.00
4637;DHT22;2331;48.806;9.140;2022-12-11T06:25:37;1.40;1.00
4637;DHT22;2331;48.806;9.140;2022-12-11T06:28:04;1.40;1.00
4637;DHT22;2331;48.806;9.140;2022-12-11T06:30:31;1.40;1.00
4637;DHT22;2331;48.806;9.140;2022-12-11T06:32:58;1.30;1.00
4637;DHT22;2331;48.806;9.140;2022-12-11T06:35:26;1.30;1.00
4637;DHT22;2331;48.806;9.140;2022-12-11T06:37:53;1.30;1.00
4637;DHT22;2331;48.806;9.140;2022-12-11T06:40:19;1.20;1.00
4637;DHT22;2331;48.806;9.140;2022-12-11T06:42:47;1.10;1.00
4637;DHT22;2331;48.806;9.140;2022-12-11T06:45:13;1.10;1.00
4637;DHT22;2331;48.806;9.140;2022-12-11T06:47:40;1.10;1.00
4637;DHT22;2331;48.806;9.140;2022-12-11T06:50:08;1.10;1.00
4637;DHT22;2331;48.806;9.140;2022-12-11T06:52:36;1.00;1.00
4637;DHT22;2331;48.806;9.140;2022-12-11T06:55:03;1.00;1.00
4637;DHT22;2331;48.806;9.140;2022-12-11T06:57:31;1.00;1.00
4637;DHT22;2331;48.806;9.140;2022-12-11T06:59:59;1.00;1.00
4637;DHT22;2331;48.806;9.140;2022-12-11T07:02:25;1.00;1.00
4637;DHT22;2331;48.806;9.140;2022-12-11T07:04:52;1.00;1.00
4637;DHT22;2331;48.806;9.140;2022-12-11T07:07:19;0.90;1.00
4637;DHT22;2331;48.806;9.140;2022-12-11T07:09:47;0.90;1.00
4637;DHT22;2331;48.806;9.140;2022-12-11T07:12:14;0.90;1.00
4637;DHT22;2331;48.806;9.140;2022-12-11T07:14:42;0.80;1.00
4637;DHT22;2331;48.806;9.140;2022-12-11T07:17:08;0.80;1.00
4637;DHT22;2331;48.806;9.140;2022-12-11T07:19:35;0.70;1.00
4637;DHT22;2331;48.806;9.140;2022-12-11T07:22:02;0.70;1.00
4637;DHT22;2331;48.806;9.140;2022-12-11T07:24:28;0.80;1.00
4637;DHT22;2331;48.806;9.140;2022-12-11T07:26:57;0.80;1.00
4637;DHT22;2331;48.806;9.140;2022-12-11T07:29:24;0.70;1.00
4637;DHT22;2331;48.806;9.140;2022-12-11T07:31:50;0.70;1.00
4637;DHT22;2331;48.806;9.140;2022-12-11T07:34:17;0.70;1.00
4637;DHT22;2331;48.806;9.140;2022-12-11T07:36:44;0.70;1.00
4637;DHT22;2331;48.806;9.140;2022-12-11T07:39:11;0.70;1.00
4637;DHT22;2331;48.806;9.140;2022-12-11T07:41:38;0.70;1.00
4637;DHT22;2331;48.806;9.140;2022-12-11T07:44:06;0.60;1.00
4637;DHT22;2331;48.806;9.140;2022-12-11T07:46:33;0.70;1.00
4637;DHT22;2331;48.806;9.140;2022-12-11T07:49:00;0.80;1.00
4637;DHT22;2331;48.806;9.140;2022-12-11T07:51:30;0.80;1.00
4637;DHT22;2331;48.806;9.140;2022-12-11T07:53:59;0.80;1.00
4637;DHT22;2331;48.806;9.140;2022-12-11T07:56:27;0.80;1.00
4637;DHT22;2331;48.806;9.140;2022-12-11T07:58:54;0.80;1.00
4637;DHT22;2331;48.806;9.140;2022-12-11T08:01:24;0.80;1.00
4637;DHT22;2331;48.806;9.140;2022-12-11T08:03:52;0.80;1.00
4637;DHT22;2331;48.806;9.140;2022-12-11T08:06:23;0.90;1.00
4637;DHT22;2331;48.806;9.140;2022-12-11T08:08:50;0.90;1.00
4637;DHT22;2331;48.806;9.140;2022-12-11T08:11:16;1.00;1.00
4637;DHT22;2331;48.806;9.140;2022-12-11T08:13:43;1.00;1.00
4637;DHT22;2331;48.806;9.140;2022-12-11T08:16:12;1.00;1.00
4637;DHT22;2331;48.806;9.140;2022-12-11T08:18:41;1.00;1.00
4637;DHT22;2331;48.806;9.140;2022-12-11T08:21:10;1.00;1.00
4637;DHT22;2331;48.806;9.140;2022-12-11T08:23:38;1.00;1.00
4637;DHT22;2331;48.806;9.140;2022-12-11T08:26:06;1.00;1.00
4637;DHT22;2331;48.806;9.140;2022-12-11T08:28:34;1.00;1.00
4637;DHT22;2331;48.806;9.140;2022-12-11T08:31:02;1.10;1.00
4637;DHT22;2331;48.806;9.140;2022-12-11T08:33:29;1.20;1.00
4637;DHT22;2331;48.806;9.140;2022-12-11T08:35:57;1.30;1.00
4637;DHT22;2331;48.806;9.140;2022-12-11T08:38:27;1.40;1.00
4637;DHT22;2331;48.806;9.140;2022-12-11T08:40:54;1.30;1.00
4637;DHT22;2331;48.806;9.140;2022-12-11T08:43:21;1.40;1.00
4637;DHT22;2331;48.806;9.140;2022-12-11T08:45:48;1.40;1.00
4637;DHT22;2331;48.806;9.140;2022-12-11T08:48:15;1.40;1.00
4637;DHT22;2331;48.806;9.140;2022-12-11T08:50:42;1.50;1.00
4637;DHT22;2331;48.806;9.140;2022-12-11T08:53:10;1.60;1.00
4637;DHT22;2331;48.806;9.140;2022-12-11T08:55:36;1.70;1.00
4637;DHT22;2331;48.806;9.140;2022-12-11T08:58:03;1.80;1.00
4637;DHT22;2331;48.806;9.140;2022-12-11T09:00:30;1.80;1.00
4637;DHT22;2331;48.806;9.140;2022-12-11T09:02:57;1.90;1.00
4637;DHT22;2331;48.806;9.140;2022-12-11T09:05:23;1.90;1.00
4637;DHT22;2331;48.806;9.140;2022-12-11T09:07:50;1.80;1.00
4637;DHT22;2331;48.806;9.140;2022-12-11T09:10:18;1.90;1.00
4637;DHT22;2331;48.806;9.140;2022-12-11T09:12:45;2.00;1.00
4637;DHT22;2331;48.806;9.140;2022-12-11T09:15:12;2.00;1.00
4637;DHT22;2331;48.806;9.140;2022-12-11T09:17:39;2.10;1.00
4637;DHT22;2331;48.806;9.140;2022-12-11T09:20:07;2.10;1.00
4637;DHT22;2331;48.806;9.140;2022-12-11T09:22:33;2.10;1.00
4637;DHT22;2331;48.806;9.140;2022-12-11T09:25:00;2.10;1.00
4637;DHT22;2331;48.806;9.140;2022-12-11T09:27:29;2.20;1.00
4637;DHT22;2331;48.806;9.140;2022-12-11T09:29:56;2.10;1.00
4637;DHT22;2331;48.806;9.140;2022-12-11T09:32:22;2.30;1.00
4637;DHT22;2331;48.806;9.140;2022-12-11T09:34:49;2.30;1.00
4637;DHT22;2331;48.806;9.140;2022-12-11T09:37:16;2.30;1.00
4637;DHT22;2331;48.806;9.140;2022-12-11T09:39:43;2.30;1.00
4637;DHT22;2331;48.806;9.140;2022-12-11T09:42:14;2.40;1.00
4637;DHT22;2331;48.806;9.140;2022-12-11T09:44:47;2.50;1.00
4637;DHT22;2331;48.806;9.140;2022-12-11T09:47:20;2.50;1.00
4637;DHT22;2331;48.806;9.140;2022-12-11T09:49:50;2.50;1.00
4637;DHT22;2331;48.806;9.140;2022-12-11T09:52:22;2.50;1.00
4637;DHT22;2331;48.806;9.140;2022-12-11T09:54:53;2.60;1.00
4637;DHT22;2331;48.806;9.140;2022-12-11T09:57:39;2.50;1.00
4637;DHT22;2331;48.806;9.140;2022-12-11T10:00:19;2.50;1.00
4637;DHT22;2331;48.806;9.140;2022-12-11T10:03:08;2.50;1.00
4637;DHT22;2331;48.806;9.140;2022-12-11T10:05:48;2.50;1.00
4637;DHT22;2331;48.806;9.140;2022-12-11T10:08:21;2.50;1.00
4637;DHT22;2331;48.806;9.140;2022-12-11T10:10:56;2.60;1.00
4637;DHT22;2331;48.806;9.140;2022-12-11T10:13:30;2.70;1.00
4637;DHT22;2331;48.806;9.140;2022-12-11T10:16:07;2.60;1.00
4637;DHT22;2331;48.806;9.140;2022-12-11T10:18:36;2.70;1.00
4637;DHT22;2331;48.806;9.140;2022-12-11T10:21:04;2.70;1.00
4637;DHT22;2331;48.806;9.140;2022-12-11T10:23:37;2.70;1.00
4637;DHT22;2331;48.806;9.140;2022-12-11T10:26:06;2.80;1.00
4637;DHT22;2331;48.806;9.140;2022-12-11T10:28:34;2.80;1.00
4637;DHT22;2331;48.806;9.140;2022-12-11T10:31:24;2.80;1.00
4637;DHT22;2331;48.806;9.140;2022-12-11T10:33:57;2.80;1.00
4637;DHT22;2331;48.806;9.140;2022-12-11T10:36:27;2.70;1.00
4637;DHT22;2331;48.806;9.140;2022-12-11T10:38:54;2.70;1.00
4637;DHT22;2331;48.806;9.140;2022-12-11T10:41:23;2.80;1.00
4637;DHT22;2331;48.806;9.140;2022-12-11T10:43:51;2.80;1.00
4637;DHT22;2331;48.806;9.140;2022-12-11T10:46:23;2.80;1.00
4637;DHT22;2331;48.806;9.140;2022-12-11T10:48:52;2.80;1.00
4637;DHT22;2331;48.806;9.140;2022-12-11T10:51:21;2.90;1.00
4637;DHT22;2331;48.806;9.140;2022-12-11T10:53:51;2.90;1.00
4637;DHT22;2331;48.806;9.140;2022-12-11T10:56:24;2.80;1.00
4637;DHT22;2331;48.806;9.140;2022-12-11T10:58:52;2.80;1.00
4637;DHT22;2331;48.806;9.140;2022-12-11T11:01:21;2.80;1.00
4637;DHT22;2331;48.806;9.140;2022-12-11T11:03:54;2.90;1.00
4637;DHT22;2331;48.806;9.140;2022-12-11T11:06:23;3.00;1.00
4637;DHT22;2331;48.806;9.140;2022-12-11T11:08:52;3.00;1.00
4637;DHT22;2331;48.806;9.140;2022-12-11T11:11:24;3.00;1.00
4637;DHT22;2331;48.806;9.140;2022-12-11T11:14:02;3.00;1.00
4637;DHT22;2331;48.806;9.140;2022-12-11T11:16:31;3.00;1.00
4637;DHT22;2331;48.806;9.140;2022-12-11T11:19:00;3.00;1.00
4637;DHT22;2331;48.806;9.140;2022-12-11T11:21:27;3.00;1.00
4637;DHT22;2331;48.806;9.140;2022-12-11T11:23:54;3.00;1.00
4637;DHT22;2331;48.806;9.140;2022-12-11T11:26:22;3.00;1.00
4637;DHT22;2331;48.806;9.140;2022-12-11T11:28:51;3.00;1.00
4637;DHT22;2331;48.806;9.140;2022-12-11T11:31:20;3.00;1.00
4637;DHT22;2331;48.806;9.140;2022-12-11T11:33:54;3.00;1.00
4637;DHT22;2331;48.806;9.140;2022-12-11T11:36:23;3.00;1.00
4637;DHT22;2331;48.806;9.140;2022-12-11T11:41:46;3.00;1.00
4637;DHT22;2331;48.806;9.140;2022-12-11T11:44:18;3.00;1.00
4637;DHT22;2331;48.806;9.140;2022-12-11T11:46:54;3.10;1.00
4637;DHT22;2331;48.806;9.140;2022-12-11T11:49:29;3.20;1.00
4637;DHT22;2331;48.806;9.140;2022-12-11T11:52:02;3.30;1.00
4637;DHT22;2331;48.806;9.140;2022-12-11T11:54:35;3.30;1.00
4637;DHT22;2331;48.806;9.140;2022-12-11T11:57:12;3.30;1.00
4637;DHT22;2331;48.806;9.140;2022-12-11T11:59:43;3.30;1.00
4637;DHT22;2331;48.806;9.140;2022-12-11T12:02:13;3.30;1.00
4637;DHT22;2331;48.806;9.140;2022-12-11T12:04:43;3.30;1.00
4637;DHT22;2331;48.806;9.140;2022-12-11T12:07:25;3.40;1.00
4637;DHT22;2331;48.806;9.140;2022-12-11T12:10:01;3.40;1.00
4637;DHT22;2331;48.806;9.140;2022-12-11T12:12:36;3.40;1.00
4637;DHT22;2331;48.806;9.140;2022-12-11T12:15:28;3.40;1.00
4637;DHT22;2331;48.806;9.140;2022-12-11T12:17:57;3.40;1.00
4637;DHT22;2331;48.806;9.140;2022-12-11T12:20:37;3.40;1.00
4637;DHT22;2331;48.806;9.140;2022-12-11T12:23:40;3.30;1.00
4637;DHT22;2331;48.806;9.140;2022-12-11T12:26:11;3.30;1.00
4637;DHT22;2331;48.806;9.140;2022-12-11T12:28:45;3.20;1.00
4637;DHT22;2331;48.806;9.140;2022-12-11T12:31:27;3.20;1.00
4637;DHT22;2331;48.806;9.140;2022-12-11T12:34:03;3.20;1.00
4637;DHT22;2331;48.806;9.140;2022-12-11T12:36:40;3.30;1.00
4637;DHT22;2331;48.806;9.140;2022-12-11T12:39:16;3.40;1.00
4637;DHT22;2331;48.806;9.140;2022-12-11T12:41:51;3.40;1.00
4637;DHT22;2331;48.806;9.140;2022-12-11T12:44:21;3.40;1.00
4637;DHT22;2331;48.806;9.140;2022-12-11T12:46:53;3.50;1.00
4637;DHT22;2331;48.806;9.140;2022-12-11T12:49:29;3.40;1.00
4637;DHT22;2331;48.806;9.140;2022-12-11T12:52:00;3.40;1.00
4637;DHT22;2331;48.806;9.140;2022-12-11T12:54:28;3.30;1.00
4637;DHT22;2331;48.806;9.140;2022-12-11T12:56:56;3.40;1.00
4637;DHT22;2331;48.806;9.140;2022-12-11T12:59:26;3.40;1.00
4637;DHT22;2331;48.806;9.140;2022-12-11T13:01:55;3.30;1.00
4637;DHT22;2331;48.806;9.140;2022-12-11T13:04:38;3.30;1.00
4637;DHT22;2331;48.806;9.140;2022-12-11T13:07:16;3.30;1.00
4637;DHT22;2331;48.806;9.140;2022-12-11T13:09:59;3.30;1.00
4637;DHT22;2331;48.806;9.140;2022-12-11T13:12:41;3.30;1.00
4637;DHT22;2331;48.806;9.140;2022-12-11T13:15:38;3.10;1.00
4637;DHT22;2331;48.806;9.140;2022-12-11T13:18:29;3.30;1.00
4637;DHT22;2331;48.806;9.140;2022-12-11T13:20:56;3.30;1.00
4637;DHT22;2331;48.806;9.140;2022-12-11T13:23:29;3.30;1.00
4637;DHT22;2331;48.806;9.140;2022-12-11T13:25:58;3.20;1.00
4637;DHT22;2331;48.806;9.140;2022-12-11T13:28:29;3.10;1.00
4637;DHT22;2331;48.806;9.140;2022-12-11T13:31:07;3.00;1.00
4637;DHT22;2331;48.806;9.140;2022-12-11T13:33:51;2.90;1.00
4637;DHT22;2331;48.806;9.140;2022-12-11T13:36:29;2.90;1.00
4637;DHT22;2331;48.806;9.140;2022-12-11T13:39:02;3.00;1.00
4637;DHT22;2331;48.806;9.140;2022-12-11T13:41:33;3.00;1.00
4637;DHT22;2331;48.806;9.140;2022-12-11T13:44:01;3.00;1.00
4637;DHT22;2331;48.806;9.140;2022-12-11T13:46:30;3.00;1.00
4637;DHT22;2331;48.806;9.140;2022-12-11T13:49:00;2.90;1.00
4637;DHT22;2331;48.806;9.140;2022-12-11T13:51:29;2.90;1.00
4637;DHT22;2331;48.806;9.140;2022-12-11T13:54:13;2.90;1.00
4637;DHT22;2331;48.806;9.140;2022-12-11T13:56:51;2.80;1.00
4637;DHT22;2331;48.806;9.140;2022-12-11T13:59:25;2.80;1.00
4637;DHT22;2331;48.806;9.140;2022-12-11T14:01:54;2.80;1.00
4637;DHT22;2331;48.806;9.140;2022-12-11T14:04:23;2.90;1.00
4637;DHT22;2331;48.806;9.140;2022-12-11T14:06:54;2.90;1.00
4637;DHT22;2331;48.806;9.140;2022-12-11T14:09:24;2.90;1.00
4637;DHT22;2331;48.806;9.140;2022-12-11T14:11:52;2.90;1.00
4637;DHT22;2331;48.806;9.140;2022-12-11T14:14:26;2.80;1.00
4637;DHT22;2331;48.806;9.140;2022-12-11T14:16:54;2.90;1.00
4637;DHT22;2331;48.806;9.140;2022-12-11T14:19:22;2.80;1.00
4637;DHT22;2331;48.806;9.140;2022-12-11T14:21:58;2.80;1.00
4637;DHT22;2331;48.806;9.140;2022-12-11T14:24:28;2.90;1.00
4637;DHT22;2331;48.806;9.140;2022-12-11T14:26:56;2.90;1.00
4637;DHT22;2331;48.806;9.140;2022-12-11T14:29:28;2.90;1.00
4637;DHT22;2331;48.806;9.140;2022-12-11T14:31:58;2.90;1.00
4637;DHT22;2331;48.806;9.140;2022-12-11T14:34:29;2.80;1.00
4637;DHT22;2331;48.806;9.140;2022-12-11T14:36:58;2.60;1.00
4637;DHT22;2331;48.806;9.140;2022-12-11T14:39:29;2.70;1.00
4637;DHT22;2331;48.806;9.140;2022-12-11T14:42:00;2.80;1.00
4637;DHT22;2331;48.806;9.140;2022-12-11T14:44:30;2.80;1.00
4637;DHT22;2331;48.806;9.140;2022-12-11T14:47:01;2.80;1.00
4637;DHT22;2331;48.806;9.140;2022-12-11T14:49:37;2.70;1.00
4637;DHT22;2331;48.806;9.140;2022-12-11T14:52:12;2.70;1.00
4637;DHT22;2331;48.806;9.140;2022-12-11T14:54:44;2.70;1.00
4637;DHT22;2331;48.806;9.140;2022-12-11T14:57:18;2.80;1.00
4637;DHT22;2331;48.806;9.140;2022-12-11T14:59:47;2.90;1.00
4637;DHT22;2331;48.806;9.140;2022-12-11T15:02:27;2.90;1.00
4637;DHT22;2331;48.806;9.140;2022-12-11T15:05:13;2.90;1.00
4637;DHT22;2331;48.806;9.140;2022-12-11T15:07:42;2.90;1.00
4637;DHT22;2331;48.806;9.140;2022-12-11T15:10:30;2.90;1.00
4637;DHT22;2331;48.806;9.140;2022-12-11T15:13:00;2.90;1.00
4637;DHT22;2331;48.806;9.140;2022-12-11T15:15:29;3.00;1.00
4637;DHT22;2331;48.806;9.140;2022-12-11T15:18:11;3.00;1.00
4637;DHT22;2331;48.806;9.140;2022-12-11T15:20:41;3.00;1.00
4637;DHT22;2331;48.806;9.140;2022-12-11T15:23:08;3.00;1.00
4637;DHT22;2331;48.806;9.140;2022-12-11T15:25:36;3.00;1.00
4637;DHT22;2331;48.806;9.140;2022-12-11T15:28:03;3.00;1.00
4637;DHT22;2331;48.806;9.140;2022-12-11T15:30:33;3.00;1.00
4637;DHT22;2331;48.806;9.140;2022-12-11T15:33:04;3.00;1.00
4637;DHT22;2331;48.806;9.140;2022-12-11T15:35:52;3.00;1.00
4637;DHT22;2331;48.806;9.140;2022-12-11T15:38:27;3.00;1.00
4637;DHT22;2331;48.806;9.140;2022-12-11T15:40:56;2.90;1.00
4637;DHT22;2331;48.806;9.140;2022-12-11T15:43:23;2.80;1.00
4637;DHT22;2331;48.806;9.140;2022-12-11T15:45:50;2.80;1.00
4637;DHT22;2331;48.806;9.140;2022-12-11T15:48:17;2.90;1.00
4637;DHT22;2331;48.806;9.140;2022-12-11T15:50:43;2.90;1.00
4637;DHT22;2331;48.806;9.140;2022-12-11T15:53:10;2.90;1.00
4637;DHT22;2331;48.806;9.140;2022-12-11T15:55:38;3.00;1.00
4637;DHT22;2331;48.806;9.140;2022-12-11T15:58:07;3.00;1.00
4637;DHT22;2331;48.806;9.140;2022-12-11T16:00:37;3.00;1.00
4637;DHT22;2331;48.806;9.140;2022-12-11T16:03:04;3.00;1.00
4637;DHT22;2331;48.806;9.140;2022-12-11T16:05:34;3.00;1.00
4637;DHT22;2331;48.806;9.140;2022-12-11T16:08:17;3.00;1.00
4637;DHT22;2331;48.806;9.140;2022-12-11T16:10:54;3.00;1.00
4637;DHT22;2331;48.806;9.140;2022-12-11T16:13:23;3.00;1.00
4637;DHT22;2331;48.806;9.140;2022-12-11T16:15:50;3.00;1.00
4637;DHT22;2331;48.806;9.140;2022-12-11T16:18:20;2.90;1.00
4637;DHT22;2331;48.806;9.140;2022-12-11T16:20:47;3.00;1.00
4637;DHT22;2331;48.806;9.140;2022-12-11T16:23:14;2.90;1.00
4637;DHT22;2331;48.806;9.140;2022-12-11T16:25:43;2.90;1.00
4637;DHT22;2331;48.806;9.140;2022-12-11T16:28:10;2.90;1.00
4637;DHT22;2331;48.806;9.140;2022-12-11T16:30:39;2.90;1.00
4637;DHT22;2331;48.806;9.140;2022-12-11T16:33:08;2.90;1.00
4637;DHT22;2331;48.806;9.140;2022-12-11T16:35:35;3.00;1.00
4637;DHT22;2331;48.806;9.140;2022-12-11T16:38:01;3.00;1.00
4637;DHT22;2331;48.806;9.140;2022-12-11T16:40:28;3.00;1.00
4637;DHT22;2331;48.806;9.140;2022-12-11T16:42:56;3.00;1.00
4637;DHT22;2331;48.806;9.140;2022-12-11T16:45:24;3.00;1.00
4637;DHT22;2331;48.806;9.140;2022-12-11T16:47:52;3.00;1.00
4637;DHT22;2331;48.806;9.140;2022-12-11T16:50:19;2.90;1.00
4637;DHT22;2331;48.806;9.140;2022-12-11T16:52:48;2.90;1.00
4637;DHT22;2331;48.806;9.140;2022-12-11T16:55:15;2.80;1.00
4637;DHT22;2331;48.806;9.140;2022-12-11T16:57:45;2.80;1.00
4637;DHT22;2331;48.806;9.140;2022-12-11T17:00:13;2.80;1.00